Airfield :
LOGIN :

Register | Disclaimer

   EN    FR    IT 

 










Legend :    VFR   Marginal VFR   IFR   Intensive IFR   Very Intensive IFR
Visi :
Ceiling :
>= 8 km
>= 3000ft
5 to 8 km
1000 to 3000 ft
1500m to 5 km
500 to 1000 ft
800 to 1500m
200 to 500 ft
< 800m
< 200 ft
Symbols :   Thunderstorms  Fog  Heavy snow  Heavy precipitations  Wind > 20 kt
SIGMETs :     Misc.  Thunderstorms  Icing  Turbulence  Mountain Waves  Volcanic Ashes







- Airport Elevation : 1260 ft
- IATA code : LDE
- Download approach charts


LFBT - Tarbes / Ossun

CURRENT METAR :
  • 270730Z AUTO 26005KT 230V290 9999 BKN012 OVC030 13/11 Q1018 BECMG SCT015 BKN035

EXPIRED METARs :
  • 270700Z AUTO 27006KT 240V300 9999 BKN012 OVC031 13/11 Q1018 TEMPO 3000 -RADZ BECMG SCT015 BKN035
  • 270630Z AUTO 27004KT 230V300 9999 OVC011 12/11 Q1018 TEMPO 3000 -RADZ BECMG SCT015 BKN035
  • 270600Z AUTO 26006KT 220V280 9999 BKN009 OVC014 12/11 Q1018 TEMPO 3000 -RADZ OVC004
  • 270530Z AUTO 26007KT 220V280 9999 BKN008 OVC014 12/11 Q1018 TEMPO 3000 -RADZ OVC004
  • 270500Z AUTO 25005KT 9999 OVC008 12/11 Q1018 TEMPO 3000 -RADZ OVC004

TAF TAF LFBT
Valid from the 27 at 06:00 until the 28 at 06:00 UTC


270500Z 2706/2806 29008KT 9999 BKN013 BKN030
PROB30
TEMPO 2706/2708 3000 -RADZ OVC004
BECMG 2707/2709 SCT015 BKN035
TEMPO 2712/2719 2000 RADZ OVC003
TEMPO 2720/2724 BKN006
No reported NOTAMs for that airfield.



MET'MAP, your aeronautical weather chart ! - Copyright ORBIFLY December 2007 - Disclaimer

ORBIFLY MET'MAP TEAM :

Programming & Development : Alexandra Zaïnal
Concept & Development : Baudouin d'Aumeries
Co-Development & Prog : Marc-Olivier Méhu
Technical & hardware support : Manuel Goepfert

Contact : metmap@orbifly.com




SOURCES & CREDITS :

   NOAA